createdAt,value
2022-09-26T00:00:03.210Z,100369.00
2022-09-26T00:02:41.167Z,100369.00
2022-09-26T00:05:11.641Z,100372.00
2022-09-26T00:07:40.347Z,100382.00
2022-09-26T00:10:10.480Z,100373.00
2022-09-26T00:12:39.410Z,100372.00
2022-09-26T00:15:11.421Z,100377.00
2022-09-26T00:17:40.188Z,100375.00
2022-09-26T00:20:10.101Z,100376.00
2022-09-26T00:22:39.016Z,100374.00
2022-09-26T00:25:09.349Z,100379.00
2022-09-26T00:27:38.303Z,100371.00
2022-09-26T00:30:10.034Z,100372.00
2022-09-26T00:32:38.838Z,100376.00
2022-09-26T00:35:09.045Z,100372.00
2022-09-26T00:37:37.736Z,100377.00
2022-09-26T00:40:07.654Z,100371.00
2022-09-26T00:42:36.560Z,100364.00
2022-09-26T00:45:06.131Z,100369.00
2022-09-26T00:47:45.773Z,100376.00
2022-09-26T00:50:21.793Z,100385.00
2022-09-26T00:52:56.303Z,100379.00
2022-09-26T00:55:30.377Z,100372.00
2022-09-26T00:58:05.637Z,100367.00
2022-09-26T01:00:35.205Z,100381.00
2022-09-26T01:03:06.625Z,100384.00
2022-09-26T01:05:37.963Z,100383.00
2022-09-26T01:08:08.461Z,100388.00
2022-09-26T01:10:39.184Z,100384.00
2022-09-26T01:13:09.684Z,100383.00
2022-09-26T01:15:38.450Z,100389.00
2022-09-26T01:18:08.796Z,100390.00
2022-09-26T01:20:52.730Z,100389.00
2022-09-26T01:24:13.553Z,100395.00
2022-09-26T01:27:28.528Z,100386.00
2022-09-26T01:30:21.897Z,100379.00
2022-09-26T01:33:29.166Z,100394.00
2022-09-26T01:36:32.092Z,100400.00
2022-09-26T01:39:23.352Z,100391.00
2022-09-26T01:42:04.548Z,100398.00
2022-09-26T01:44:42.571Z,100391.00
2022-09-26T01:47:19.319Z,100396.00
2022-09-26T01:49:59.887Z,100393.00
2022-09-26T01:52:38.253Z,100395.00
2022-09-26T01:55:13.938Z,100402.00
2022-09-26T01:57:50.863Z,100404.00
2022-09-26T02:00:20.990Z,100397.00
2022-09-26T02:02:52.641Z,100390.00
2022-09-26T02:05:32.941Z,100394.00
2022-09-26T02:08:11.375Z,100391.00
2022-09-26T02:10:47.677Z,100391.00
2022-09-26T02:13:23.457Z,100386.00
2022-09-26T02:15:58.857Z,100384.00
2022-09-26T02:18:35.012Z,100390.00
2022-09-26T02:21:14.637Z,100388.00
2022-09-26T02:23:43.733Z,100385.00
2022-09-26T02:26:12.985Z,100394.00
2022-09-26T02:28:41.840Z,100396.00
2022-09-26T02:31:21.264Z,100389.00
2022-09-26T02:33:53.830Z,100395.00
2022-09-26T02:36:24.169Z,100387.00
2022-09-26T02:38:54.511Z,100383.00
2022-09-26T02:41:51.037Z,100386.00
2022-09-26T02:44:41.047Z,100380.00
2022-09-26T02:47:41.743Z,100385.00
2022-09-26T02:50:40.649Z,100387.00
2022-09-26T02:53:33.658Z,100390.00
2022-09-26T02:56:14.418Z,100387.00
2022-09-26T02:58:59.844Z,100388.00
2022-09-26T03:01:40.406Z,100392.00
2022-09-26T03:04:19.418Z,100384.00
2022-09-26T03:06:57.757Z,100374.00
2022-09-26T03:09:30.416Z,100380.00
2022-09-26T03:12:05.401Z,100379.00
2022-09-26T03:14:39.085Z,100380.00
2022-09-26T03:17:09.642Z,100382.00
2022-09-26T03:19:47.945Z,100380.00
2022-09-26T03:22:18.609Z,100377.00
2022-09-26T03:24:48.572Z,100371.00
2022-09-26T03:27:19.835Z,100371.00
2022-09-26T03:29:50.870Z,100369.00
2022-09-26T03:32:24.137Z,100369.00
2022-09-26T03:34:52.785Z,100369.00
2022-09-26T03:37:22.951Z,100371.00
2022-09-26T03:39:52.493Z,100377.00
2022-09-26T03:42:31.103Z,100384.00
2022-09-26T03:45:00.696Z,100386.00
2022-09-26T03:47:32.870Z,100380.00
2022-09-26T03:50:01.666Z,100388.00
2022-09-26T03:52:33.789Z,100388.00
2022-09-26T03:55:02.607Z,100395.00
2022-09-26T03:57:32.550Z,100398.00
2022-09-26T04:00:14.506Z,100397.00
2022-09-26T04:02:47.646Z,100396.00
2022-09-26T04:05:32.713Z,100402.00
2022-09-26T04:08:04.107Z,100401.00
2022-09-26T04:10:33.381Z,100405.00
2022-09-26T04:13:03.277Z,100398.00
2022-09-26T04:15:31.970Z,100402.00
2022-09-26T04:18:10.015Z,100403.00
2022-09-26T04:20:38.770Z,100407.00
2022-09-26T04:23:09.235Z,100410.00
2022-09-26T04:25:39.132Z,100415.00
2022-09-26T04:28:08.483Z,100412.00
2022-09-26T04:30:40.176Z,100418.00
2022-09-26T04:33:10.736Z,100412.00
2022-09-26T04:36:06.945Z,100416.00
2022-09-26T04:38:38.119Z,100428.00
2022-09-26T04:41:11.782Z,100418.00
2022-09-26T04:43:41.421Z,100426.00
2022-09-26T04:46:21.719Z,100424.00
2022-09-26T04:48:55.048Z,100427.00
2022-09-26T04:51:26.830Z,100427.00
2022-09-26T04:53:57.584Z,100424.00
2022-09-26T04:56:32.195Z,100420.00
2022-09-26T04:59:02.370Z,100437.00
2022-09-26T05:01:54.960Z,100429.00
2022-09-26T05:04:39.323Z,100440.00
2022-09-26T05:07:08.155Z,100434.00
2022-09-26T05:09:38.551Z,100436.00
2022-09-26T05:12:10.014Z,100439.00
2022-09-26T05:14:42.000Z,100437.00
2022-09-26T05:17:12.138Z,100434.00
2022-09-26T05:19:43.179Z,100432.00
2022-09-26T05:22:31.667Z,100432.00
2022-09-26T05:25:19.459Z,100441.00
2022-09-26T05:27:50.177Z,100440.00
2022-09-26T05:30:19.516Z,100439.00
2022-09-26T05:32:48.632Z,100437.00
2022-09-26T05:35:19.001Z,100430.00
2022-09-26T05:37:48.047Z,100436.00
2022-09-26T05:40:35.819Z,100442.00
2022-09-26T05:43:05.168Z,100435.00
2022-09-26T05:45:34.484Z,100436.00
2022-09-26T05:48:04.614Z,100430.00
2022-09-26T05:50:34.236Z,100434.00
2022-09-26T05:53:04.487Z,100430.00
2022-09-26T05:55:37.541Z,100437.00
2022-09-26T05:58:34.873Z,100429.00
2022-09-26T06:01:20.391Z,100426.00
2022-09-26T06:03:57.004Z,100427.00
2022-09-26T06:06:31.015Z,100437.00
2022-09-26T06:09:10.657Z,100444.00
2022-09-26T06:12:12.972Z,100437.00
2022-09-26T06:14:42.673Z,100443.00
2022-09-26T06:17:11.626Z,100439.00
2022-09-26T06:19:40.805Z,100444.00
2022-09-26T06:22:09.710Z,100449.00
2022-09-26T06:24:39.785Z,100445.00
2022-09-26T06:27:17.366Z,100439.00
2022-09-26T06:29:47.511Z,100444.00
2022-09-26T06:32:16.678Z,100435.00
2022-09-26T06:35:15.208Z,100445.00
2022-09-26T06:37:49.938Z,100450.00
2022-09-26T06:40:19.726Z,100451.00
2022-09-26T06:42:49.969Z,100451.00
2022-09-26T06:45:38.521Z,100453.00
2022-09-26T06:48:18.883Z,100455.00
2022-09-26T06:51:00.995Z,100465.00
2022-09-26T06:53:32.494Z,100459.00
2022-09-26T06:56:03.381Z,100457.00
2022-09-26T06:58:34.470Z,100459.00
2022-09-26T07:01:07.719Z,100466.00
2022-09-26T07:04:05.492Z,100462.00
2022-09-26T07:06:38.827Z,100462.00
2022-09-26T07:09:12.200Z,100465.00
2022-09-26T07:12:17.453Z,100467.00
2022-09-26T07:14:52.872Z,100468.00
2022-09-26T07:17:32.423Z,100477.00
2022-09-26T07:20:33.432Z,100479.00
2022-09-26T07:23:08.674Z,100480.00
2022-09-26T07:25:39.773Z,100478.00
2022-09-26T07:28:10.819Z,100482.00
2022-09-26T07:30:52.081Z,100481.00
2022-09-26T07:33:35.517Z,100480.00
2022-09-26T07:36:10.504Z,100487.00
2022-09-26T07:38:39.417Z,100491.00
2022-09-26T07:41:10.978Z,100485.00
2022-09-26T07:46:49.199Z,100497.00
2022-09-26T07:49:35.257Z,100494.00
2022-09-26T07:52:09.935Z,100505.00
2022-09-26T07:54:49.164Z,100501.00
2022-09-26T07:57:38.216Z,100503.00
2022-09-26T08:00:27.393Z,100506.00
2022-09-26T08:03:28.771Z,100500.00
2022-09-26T08:06:02.788Z,100500.00
2022-09-26T08:08:32.100Z,100502.00
2022-09-26T08:11:04.249Z,100504.00
2022-09-26T08:13:50.621Z,100503.00
2022-09-26T08:16:23.054Z,100498.00
2022-09-26T08:18:56.519Z,100497.00
2022-09-26T08:21:26.784Z,100496.00
2022-09-26T08:23:58.674Z,100509.00
2022-09-26T08:26:33.348Z,100508.00
2022-09-26T08:29:12.495Z,100508.00
2022-09-26T08:31:42.363Z,100507.00
2022-09-26T08:34:12.545Z,100509.00
2022-09-26T08:36:41.906Z,100510.00
2022-09-26T08:39:36.604Z,100516.00
2022-09-26T08:42:46.206Z,100515.00
2022-09-26T08:46:07.297Z,100506.00
2022-09-26T08:49:35.092Z,100514.00
2022-09-26T08:52:21.581Z,100516.00
2022-09-26T08:54:53.653Z,100517.00
2022-09-26T08:57:38.126Z,100507.00
2022-09-26T09:00:20.232Z,100512.00
2022-09-26T09:03:16.852Z,100524.00
2022-09-26T09:05:53.448Z,100519.00
2022-09-26T09:08:29.032Z,100524.00
2022-09-26T09:11:26.210Z,100527.00
2022-09-26T09:14:17.033Z,100529.00
2022-09-26T09:17:13.808Z,100529.00
2022-09-26T09:20:14.026Z,100530.00
2022-09-26T09:23:21.480Z,100542.00
2022-09-26T09:29:31.008Z,100535.00
2022-09-26T09:32:30.255Z,100533.00
2022-09-26T09:35:35.300Z,100532.00
2022-09-26T09:38:33.007Z,100531.00
2022-09-26T09:41:13.059Z,100537.00
2022-09-26T09:43:47.679Z,100534.00
2022-09-26T09:46:25.193Z,100531.00
2022-09-26T09:49:01.504Z,100538.00
2022-09-26T09:51:42.553Z,100536.00
2022-09-26T09:54:48.631Z,100541.00
2022-09-26T09:57:43.951Z,100535.00
2022-09-26T10:00:17.801Z,100531.00
2022-09-26T10:03:24.351Z,100537.00
2022-09-26T10:06:00.710Z,100542.00
2022-09-26T10:08:37.580Z,100535.00
2022-09-26T10:11:26.421Z,100539.00
2022-09-26T10:14:03.501Z,100545.00
2022-09-26T10:17:18.223Z,100541.00
2022-09-26T10:20:00.280Z,100546.00
2022-09-26T10:22:37.569Z,100544.00
2022-09-26T10:25:18.507Z,100543.00
2022-09-26T10:27:55.262Z,100543.00
2022-09-26T10:30:28.413Z,100548.00
2022-09-26T10:33:05.484Z,100552.00
2022-09-26T10:35:44.341Z,100543.00
2022-09-26T10:38:22.475Z,100554.00
2022-09-26T10:41:06.061Z,100548.00
2022-09-26T10:43:39.925Z,100554.00
2022-09-26T10:46:24.922Z,100553.00
2022-09-26T10:49:17.220Z,100565.00
2022-09-26T10:52:23.867Z,100567.00
2022-09-26T10:55:00.088Z,100570.00
2022-09-26T10:57:36.765Z,100567.00
2022-09-26T11:00:09.774Z,100561.00
2022-09-26T11:02:39.761Z,100563.00
2022-09-26T11:05:27.294Z,100566.00
2022-09-26T11:08:29.930Z,100565.00
2022-09-26T11:11:27.671Z,100563.00
2022-09-26T11:14:05.366Z,100564.00
2022-09-26T11:16:54.013Z,100562.00
2022-09-26T11:19:40.841Z,100566.00
2022-09-26T11:22:19.780Z,100568.00
2022-09-26T11:24:59.529Z,100567.00
2022-09-26T11:27:43.531Z,100569.00
2022-09-26T11:30:20.784Z,100562.00
2022-09-26T11:33:18.885Z,100577.00
2022-09-26T11:36:47.695Z,100561.00
2022-09-26T11:39:47.504Z,100561.00
2022-09-26T11:42:36.343Z,100558.00
2022-09-26T11:45:16.933Z,100557.00
2022-09-26T11:48:39.233Z,100556.00
2022-09-26T11:51:52.538Z,100562.00
2022-09-26T11:54:47.482Z,100565.00
2022-09-26T11:57:43.111Z,100563.00
2022-09-26T12:00:24.711Z,100554.00
2022-09-26T12:03:33.582Z,100560.00
2022-09-26T12:06:14.010Z,100568.00
2022-09-26T12:09:13.139Z,100561.00
2022-09-26T12:11:56.679Z,100567.00
2022-09-26T12:14:45.986Z,100568.00
2022-09-26T12:17:35.237Z,100569.00
2022-09-26T12:20:23.318Z,100572.00
2022-09-26T12:23:01.448Z,100572.00
2022-09-26T12:25:43.469Z,100571.00
2022-09-26T12:28:31.961Z,100574.00
2022-09-26T12:31:18.676Z,100574.00
2022-09-26T12:34:16.716Z,100572.00
2022-09-26T12:37:11.539Z,100574.00
2022-09-26T12:39:57.534Z,100581.00
2022-09-26T12:42:47.855Z,100581.00
2022-09-26T12:45:53.714Z,100577.00
2022-09-26T12:48:44.412Z,100588.00
2022-09-26T12:51:28.757Z,100590.00
2022-09-26T12:54:33.149Z,100587.00
2022-09-26T12:57:17.369Z,100590.00
2022-09-26T13:00:12.778Z,100596.00
2022-09-26T13:03:11.879Z,100594.00
2022-09-26T13:06:34.472Z,100595.00
2022-09-26T13:09:21.967Z,100596.00
2022-09-26T13:12:07.905Z,100590.00
2022-09-26T13:15:00.946Z,100592.00
2022-09-26T13:17:41.711Z,100595.00
2022-09-26T13:20:21.286Z,100593.00
2022-09-26T13:22:59.252Z,100595.00
2022-09-26T13:25:38.710Z,100595.00
2022-09-26T13:28:17.705Z,100590.00
2022-09-26T13:30:58.194Z,100601.00
2022-09-26T13:33:37.180Z,100610.00
2022-09-26T13:36:08.919Z,100600.00
2022-09-26T13:38:53.224Z,100592.00
2022-09-26T13:41:39.807Z,100601.00
2022-09-26T13:44:30.989Z,100613.00
2022-09-26T13:47:17.908Z,100606.00
2022-09-26T13:50:01.491Z,100604.00
2022-09-26T13:52:53.007Z,100608.00
2022-09-26T13:55:25.578Z,100600.00
2022-09-26T13:58:19.544Z,100607.00
2022-09-26T14:00:57.093Z,100606.00
2022-09-26T14:03:47.354Z,100607.00
2022-09-26T14:06:32.077Z,100612.00
2022-09-26T14:09:24.715Z,100612.00
2022-09-26T14:12:31.887Z,100608.00
2022-09-26T14:15:25.922Z,100613.00
2022-09-26T14:18:17.285Z,100615.00
2022-09-26T14:21:16.149Z,100628.00
2022-09-26T14:23:49.802Z,100615.00
2022-09-26T14:26:22.485Z,100621.00
2022-09-26T14:28:57.214Z,100617.00
2022-09-26T14:32:01.416Z,100627.00
2022-09-26T14:34:39.664Z,100621.00
2022-09-26T14:37:29.567Z,100625.00
2022-09-26T14:40:16.866Z,100626.00
2022-09-26T14:43:00.662Z,100625.00
2022-09-26T14:45:49.010Z,100626.00
2022-09-26T14:48:33.717Z,100618.00
2022-09-26T14:51:08.949Z,100623.00
2022-09-26T14:53:45.339Z,100622.00
2022-09-26T14:56:19.679Z,100628.00
2022-09-26T14:58:53.441Z,100625.00
2022-09-26T15:01:29.909Z,100626.00
2022-09-26T15:04:04.960Z,100629.00
2022-09-26T15:06:43.995Z,100626.00
2022-09-26T15:09:19.320Z,100622.00
2022-09-26T15:11:55.792Z,100624.00
2022-09-26T15:14:33.979Z,100623.00
2022-09-26T15:17:04.908Z,100614.00
2022-09-26T15:19:40.884Z,100624.00
2022-09-26T15:22:16.409Z,100615.00
2022-09-26T15:24:46.407Z,100616.00
2022-09-26T15:27:22.390Z,100621.00
2022-09-26T15:29:55.374Z,100616.00
2022-09-26T15:32:29.203Z,100619.00
2022-09-26T15:35:05.229Z,100619.00
2022-09-26T15:37:38.871Z,100620.00
2022-09-26T15:40:17.876Z,100618.00
2022-09-26T15:43:10.166Z,100606.00
2022-09-26T15:45:59.387Z,100620.00
2022-09-26T15:48:32.639Z,100616.00
2022-09-26T15:51:12.843Z,100620.00
2022-09-26T15:53:47.483Z,100621.00
2022-09-26T15:56:23.014Z,100629.00
2022-09-26T15:59:00.923Z,100632.00
2022-09-26T16:01:33.313Z,100628.00
2022-09-26T16:04:05.846Z,100631.00
2022-09-26T16:06:45.226Z,100639.00
2022-09-26T16:09:24.640Z,100637.00
2022-09-26T16:11:58.325Z,100631.00
2022-09-26T16:14:37.846Z,100640.00
2022-09-26T16:17:30.061Z,100641.00
2022-09-26T16:20:06.345Z,100636.00
2022-09-26T16:22:45.867Z,100643.00
2022-09-26T16:25:25.472Z,100636.00
2022-09-26T16:28:17.803Z,100638.00
2022-09-26T16:31:16.173Z,100634.00
2022-09-26T16:33:53.062Z,100640.00
2022-09-26T16:36:25.065Z,100643.00
2022-09-26T16:39:02.082Z,100633.00
2022-09-26T16:44:35.439Z,100639.00
2022-09-26T16:47:09.305Z,100643.00
2022-09-26T16:49:46.890Z,100643.00
2022-09-26T16:52:34.590Z,100637.00
2022-09-26T16:55:11.753Z,100642.00
2022-09-26T16:57:53.759Z,100641.00
2022-09-26T17:00:52.396Z,100644.00
2022-09-26T17:03:26.734Z,100651.00
2022-09-26T17:05:58.175Z,100655.00
2022-09-26T17:08:29.157Z,100650.00
2022-09-26T17:11:04.344Z,100656.00
2022-09-26T17:13:40.968Z,100648.00
2022-09-26T17:16:10.957Z,100653.00
2022-09-26T17:18:46.686Z,100653.00
2022-09-26T17:21:16.469Z,100647.00
2022-09-26T17:23:45.869Z,100649.00
2022-09-26T17:26:36.829Z,100652.00
2022-09-26T17:29:07.450Z,100654.00
2022-09-26T17:31:37.115Z,100655.00
2022-09-26T17:34:08.271Z,100657.00
2022-09-26T17:36:38.637Z,100655.00
2022-09-26T17:39:18.747Z,100653.00
2022-09-26T17:41:51.541Z,100651.00
2022-09-26T17:44:23.057Z,100654.00
2022-09-26T17:46:56.439Z,100659.00
2022-09-26T17:49:31.301Z,100658.00
2022-09-26T17:52:05.361Z,100658.00
2022-09-26T17:54:41.033Z,100658.00
2022-09-26T17:57:17.824Z,100663.00
2022-09-26T17:59:49.132Z,100664.00
2022-09-26T18:02:29.017Z,100664.00
2022-09-26T18:05:03.520Z,100660.00
2022-09-26T18:07:42.304Z,100664.00
2022-09-26T18:10:23.626Z,100673.00
2022-09-26T18:13:03.741Z,100679.00
2022-09-26T18:15:34.806Z,100675.00
2022-09-26T18:18:04.241Z,100682.00
2022-09-26T18:20:39.846Z,100680.00
2022-09-26T18:23:20.012Z,100691.00
2022-09-26T18:25:55.467Z,100690.00
2022-09-26T18:28:36.934Z,100692.00
2022-09-26T18:31:10.063Z,100680.00
2022-09-26T18:33:43.102Z,100679.00
2022-09-26T18:36:13.865Z,100685.00
2022-09-26T18:38:46.323Z,100685.00
2022-09-26T18:41:27.622Z,100690.00
2022-09-26T18:44:03.571Z,100689.00
2022-09-26T18:46:36.725Z,100682.00
2022-09-26T18:49:09.741Z,100690.00
2022-09-26T18:51:41.862Z,100690.00
2022-09-26T18:54:14.979Z,100690.00
2022-09-26T18:57:04.295Z,100686.00
2022-09-26T18:59:39.586Z,100675.00
2022-09-26T19:02:26.684Z,100677.00
2022-09-26T19:05:03.102Z,100675.00
2022-09-26T19:07:45.865Z,100666.00
2022-09-26T19:10:32.444Z,100672.00
2022-09-26T19:13:07.906Z,100673.00
2022-09-26T19:15:52.950Z,100670.00
2022-09-26T19:18:26.147Z,100675.00
2022-09-26T19:21:01.719Z,100680.00
2022-09-26T19:23:38.864Z,100674.00
2022-09-26T19:26:17.770Z,100678.00
2022-09-26T19:28:52.093Z,100683.00
2022-09-26T19:31:36.839Z,100688.00
2022-09-26T19:34:19.694Z,100681.00
2022-09-26T19:36:56.969Z,100671.00
2022-09-26T19:39:32.940Z,100675.00
2022-09-26T19:42:12.419Z,100690.00
2022-09-26T19:44:50.963Z,100689.00
2022-09-26T19:47:26.699Z,100690.00
2022-09-26T19:50:04.936Z,100688.00
2022-09-26T19:52:39.501Z,100692.00
2022-09-26T19:55:18.687Z,100686.00
2022-09-26T19:57:51.595Z,100692.00
2022-09-26T20:00:24.881Z,100693.00
2022-09-26T20:02:58.356Z,100707.00
2022-09-26T20:05:32.143Z,100711.00
2022-09-26T20:08:11.030Z,100711.00
2022-09-26T20:10:44.923Z,100713.00
2022-09-26T20:13:14.552Z,100711.00
2022-09-26T20:15:44.355Z,100711.00
2022-09-26T20:18:23.948Z,100713.00
2022-09-26T20:20:56.886Z,100701.00
2022-09-26T20:23:31.882Z,100702.00
2022-09-26T20:26:01.334Z,100707.00
2022-09-26T20:28:31.186Z,100716.00
2022-09-26T20:31:01.596Z,100715.00
2022-09-26T20:33:33.608Z,100710.00
2022-09-26T20:36:06.810Z,100703.00
2022-09-26T20:38:41.686Z,100709.00
2022-09-26T20:41:22.689Z,100711.00
2022-09-26T20:44:01.916Z,100718.00
2022-09-26T20:46:36.851Z,100711.00
2022-09-26T20:49:13.418Z,100715.00
2022-09-26T20:51:42.973Z,100723.00
2022-09-26T20:54:29.882Z,100724.00
2022-09-26T20:57:01.380Z,100730.00
2022-09-26T20:59:30.227Z,100727.00
2022-09-26T21:02:05.027Z,100729.00
2022-09-26T21:04:35.310Z,100727.00
2022-09-26T21:07:04.723Z,100725.00
2022-09-26T21:09:36.678Z,100722.00
2022-09-26T21:12:13.964Z,100722.00
2022-09-26T21:14:43.337Z,100717.00
2022-09-26T21:17:20.330Z,100727.00
2022-09-26T21:19:54.071Z,100719.00
2022-09-26T21:22:46.407Z,100718.00
2022-09-26T21:25:19.121Z,100723.00
2022-09-26T21:27:51.656Z,100715.00
2022-09-26T21:30:22.052Z,100717.00
2022-09-26T21:32:55.870Z,100723.00
2022-09-26T21:35:30.423Z,100730.00
2022-09-26T21:38:01.965Z,100729.00
2022-09-26T21:40:34.629Z,100724.00
2022-09-26T21:43:11.099Z,100730.00
2022-09-26T21:45:42.102Z,100730.00
2022-09-26T21:48:11.752Z,100730.00
2022-09-26T21:50:47.831Z,100733.00
2022-09-26T21:53:22.442Z,100725.00
2022-09-26T21:55:56.707Z,100723.00
2022-09-26T21:58:31.685Z,100725.00
2022-09-26T22:01:00.508Z,100715.00
2022-09-26T22:03:34.716Z,100726.00
2022-09-26T22:06:07.464Z,100731.00
2022-09-26T22:08:37.108Z,100728.00
2022-09-26T22:11:06.639Z,100720.00
2022-09-26T22:13:36.689Z,100733.00
2022-09-26T22:16:07.831Z,100728.00
2022-09-26T22:18:39.062Z,100729.00
2022-09-26T22:21:11.411Z,100725.00
2022-09-26T22:23:43.394Z,100719.00
2022-09-26T22:26:12.386Z,100717.00
2022-09-26T22:28:41.225Z,100716.00
2022-09-26T22:31:10.155Z,100720.00
2022-09-26T22:33:39.758Z,100711.00
2022-09-26T22:36:10.438Z,100718.00
2022-09-26T22:38:40.152Z,100719.00
2022-09-26T22:41:09.420Z,100718.00
2022-09-26T22:43:38.453Z,100717.00
2022-09-26T22:46:10.332Z,100719.00
2022-09-26T22:48:41.937Z,100714.00
2022-09-26T22:51:12.222Z,100721.00
2022-09-26T22:53:43.465Z,100727.00
2022-09-26T22:56:16.298Z,100724.00
2022-09-26T22:58:47.845Z,100728.00
2022-09-26T23:01:19.687Z,100726.00
2022-09-26T23:03:52.037Z,100727.00
2022-09-26T23:06:23.906Z,100725.00
2022-09-26T23:08:52.957Z,100726.00
2022-09-26T23:11:22.806Z,100731.00
2022-09-26T23:13:53.701Z,100726.00
2022-09-26T23:16:26.124Z,100730.00
2022-09-26T23:18:55.097Z,100724.00
2022-09-26T23:21:28.339Z,100727.00
2022-09-26T23:23:58.865Z,100722.00
2022-09-26T23:26:30.082Z,100716.00
2022-09-26T23:29:00.028Z,100718.00
2022-09-26T23:31:30.002Z,100714.00
2022-09-26T23:34:00.107Z,100720.00
2022-09-26T23:36:31.059Z,100720.00
2022-09-26T23:39:01.287Z,100720.00
2022-09-26T23:41:30.438Z,100721.00
2022-09-26T23:43:59.475Z,100718.00
2022-09-26T23:46:28.480Z,100720.00
2022-09-26T23:48:57.303Z,100728.00
2022-09-26T23:51:26.046Z,100729.00
2022-09-26T23:53:57.139Z,100720.00
2022-09-26T23:56:25.983Z,100725.00
2022-09-26T23:58:57.776Z,100732.00
